createdAt,value
2018-08-25T00:01:15.801Z,1.00
2018-08-25T00:03:45.823Z,0.00
2018-08-25T00:06:15.153Z,0.25
2018-08-25T00:08:44.724Z,1.00
2018-08-25T00:11:15.771Z,1.00
2018-08-25T00:13:45.339Z,1.00
2018-08-25T00:16:16.320Z,0.50
2018-08-25T00:21:34.289Z,1.00
2018-08-25T00:24:03.841Z,1.00
2018-08-25T00:26:33.083Z,0.25
2018-08-25T00:29:05.139Z,1.00
2018-08-25T00:31:34.578Z,1.00
2018-08-25T00:34:05.040Z,1.00
2018-08-25T00:36:35.543Z,1.00
2018-08-25T00:42:16.843Z,1.00
2018-08-25T00:44:47.382Z,0.75
2018-08-25T00:47:18.315Z,0.50
2018-08-25T00:49:48.846Z,0.00
2018-08-25T00:52:18.415Z,1.00
2018-08-25T00:55:03.451Z,0.75
2018-08-25T00:57:38.672Z,1.00
2018-08-25T01:00:14.334Z,2.00
2018-08-25T01:02:43.996Z,1.00
2018-08-25T01:05:13.986Z,2.00
2018-08-25T01:07:43.610Z,2.25
2018-08-25T01:10:12.945Z,4.75
2018-08-25T01:12:43.997Z,4.50
2018-08-25T01:15:17.456Z,5.25
2018-08-25T01:17:47.511Z,6.75
2018-08-25T01:20:21.151Z,8.50
2018-08-25T01:22:51.034Z,9.00
2018-08-25T01:25:21.588Z,9.00
2018-08-25T01:27:53.030Z,6.75
2018-08-25T01:30:25.701Z,5.00
2018-08-25T01:32:59.924Z,4.00
2018-08-25T01:35:30.556Z,3.75
2018-08-25T01:38:00.394Z,2.50
2018-08-25T01:40:30.118Z,2.75
2018-08-25T01:43:02.098Z,1.25
2018-08-25T01:45:32.642Z,2.00
2018-08-25T01:48:02.477Z,1.25
2018-08-25T01:50:32.649Z,1.25
2018-08-25T01:53:03.600Z,1.00
2018-08-25T01:55:33.870Z,1.00
2018-08-25T01:58:03.491Z,1.00
2018-08-25T02:00:33.638Z,1.25
2018-08-25T02:03:03.962Z,1.00
2018-08-25T02:05:33.310Z,1.00
2018-08-25T02:08:04.880Z,1.25
2018-08-25T02:10:35.056Z,1.00
2018-08-25T02:13:06.194Z,2.00
2018-08-25T02:15:37.728Z,2.00
2018-08-25T02:18:12.504Z,2.00
2018-08-25T02:20:42.365Z,1.00
2018-08-25T02:23:12.262Z,1.00
2018-08-25T02:25:42.881Z,1.00
2018-08-25T02:28:12.899Z,1.25
2018-08-25T02:30:43.532Z,1.75
2018-08-25T02:33:14.040Z,2.00
2018-08-25T02:35:46.146Z,1.50
2018-08-25T02:38:16.192Z,1.75
2018-08-25T02:40:45.664Z,1.25
2018-08-25T02:43:14.814Z,2.00
2018-08-25T02:45:44.858Z,1.75
2018-08-25T02:48:15.044Z,1.00
2018-08-25T02:50:44.321Z,1.00
2018-08-25T02:53:13.918Z,1.50
2018-08-25T02:55:43.440Z,1.00
2018-08-25T02:58:13.292Z,0.75
2018-08-25T03:00:45.738Z,1.00
2018-08-25T03:03:16.389Z,2.00
2018-08-25T03:05:48.031Z,1.00
2018-08-25T03:08:18.662Z,1.00
2018-08-25T03:10:48.591Z,1.00
2018-08-25T03:13:19.588Z,1.00
2018-08-25T03:15:50.318Z,1.75
2018-08-25T03:18:19.640Z,1.50
2018-08-25T03:20:58.969Z,0.75
2018-08-25T03:23:31.282Z,1.00
2018-08-25T03:26:02.244Z,2.00
2018-08-25T03:28:31.819Z,2.00
2018-08-25T03:31:01.796Z,1.75
2018-08-25T03:33:31.329Z,1.00
2018-08-25T03:36:00.889Z,1.00
2018-08-25T03:38:30.479Z,1.00
2018-08-25T03:40:59.847Z,1.00
2018-08-25T03:43:29.378Z,1.00
2018-08-25T03:46:00.361Z,1.00
2018-08-25T03:48:29.790Z,1.00
2018-08-25T03:50:58.989Z,1.00
2018-08-25T03:53:29.565Z,1.25
2018-08-25T03:55:59.217Z,2.00
2018-08-25T03:58:29.885Z,1.75
2018-08-25T04:01:00.488Z,1.00
2018-08-25T04:03:30.462Z,1.00
2018-08-25T04:06:00.428Z,1.25
2018-08-25T04:08:31.048Z,1.00
2018-08-25T04:11:01.730Z,1.00
2018-08-25T04:13:33.265Z,1.00
2018-08-25T04:16:04.421Z,1.75
2018-08-25T04:18:34.710Z,0.50
2018-08-25T04:21:04.801Z,1.00
2018-08-25T04:23:34.159Z,1.00
2018-08-25T04:26:03.728Z,1.00
2018-08-25T04:28:33.020Z,1.25
2018-08-25T04:31:03.873Z,1.00
2018-08-25T04:33:33.785Z,1.00
2018-08-25T04:36:11.599Z,1.00
2018-08-25T04:38:42.620Z,2.00
2018-08-25T04:41:12.552Z,1.00
2018-08-25T04:43:43.233Z,1.00
2018-08-25T04:46:13.825Z,1.00
2018-08-25T04:48:44.608Z,1.00
2018-08-25T04:51:15.349Z,1.00
2018-08-25T04:53:54.293Z,2.00
2018-08-25T04:56:23.992Z,1.25
2018-08-25T04:58:53.367Z,2.00
2018-08-25T05:01:23.667Z,1.00
2018-08-25T05:03:52.830Z,2.00
2018-08-25T05:06:24.069Z,2.00
2018-08-25T05:08:57.526Z,2.00
2018-08-25T05:11:27.154Z,2.00
2018-08-25T05:13:57.040Z,2.00
2018-08-25T05:16:26.872Z,2.00
2018-08-25T05:18:56.032Z,2.00
2018-08-25T05:21:25.598Z,2.00
2018-08-25T05:23:55.344Z,2.00
2018-08-25T05:26:26.335Z,2.00
2018-08-25T05:28:56.145Z,2.00
2018-08-25T05:31:25.920Z,2.00
2018-08-25T05:33:55.574Z,1.75
2018-08-25T05:36:25.759Z,2.00
2018-08-25T05:39:04.987Z,2.00
2018-08-25T05:41:35.977Z,2.00
2018-08-25T05:44:06.875Z,1.75
2018-08-25T05:46:36.888Z,1.50
2018-08-25T05:49:06.187Z,1.00
2018-08-25T05:51:37.511Z,1.50
2018-08-25T05:54:07.948Z,3.00
2018-08-25T05:56:38.238Z,2.00
2018-08-25T05:59:08.411Z,2.00
2018-08-25T06:01:38.197Z,3.00
2018-08-25T06:04:07.813Z,3.00
2018-08-25T06:06:38.396Z,2.00
2018-08-25T06:09:14.575Z,2.00
2018-08-25T06:11:45.358Z,2.00
2018-08-25T06:14:18.131Z,2.25
2018-08-25T06:16:47.574Z,2.00
2018-08-25T06:19:17.346Z,2.75
2018-08-25T06:21:47.959Z,3.00
2018-08-25T06:24:17.816Z,2.75
2018-08-25T06:26:49.604Z,2.00
2018-08-25T06:29:19.715Z,4.75
2018-08-25T06:31:50.426Z,2.25
2018-08-25T06:34:20.898Z,2.50
2018-08-25T06:36:51.451Z,2.25
2018-08-25T06:39:24.568Z,4.75
2018-08-25T06:41:56.436Z,3.75
2018-08-25T06:44:26.514Z,4.75
2018-08-25T06:46:57.469Z,4.25
2018-08-25T06:49:30.677Z,5.50
2018-08-25T06:52:00.402Z,5.75
2018-08-25T06:54:30.218Z,5.00
2018-08-25T06:57:01.543Z,5.00
2018-08-25T07:02:15.826Z,4.50
2018-08-25T07:04:45.295Z,6.00
2018-08-25T07:07:15.435Z,6.00
2018-08-25T07:09:45.625Z,6.00
2018-08-25T07:12:18.239Z,6.00
2018-08-25T07:14:47.649Z,7.00
2018-08-25T07:17:17.155Z,6.25
2018-08-25T07:19:47.576Z,6.00
2018-08-25T07:24:52.529Z,6.50
2018-08-25T07:27:22.494Z,6.00
2018-08-25T07:29:52.319Z,6.75
2018-08-25T07:32:21.987Z,7.00
2018-08-25T07:34:51.512Z,7.00
2018-08-25T07:37:20.804Z,6.00
2018-08-25T07:42:30.102Z,7.25
2018-08-25T07:45:09.276Z,5.50
2018-08-25T07:47:41.269Z,6.25
2018-08-25T07:50:13.579Z,5.00
2018-08-25T07:52:47.487Z,6.75
2018-08-25T07:55:16.837Z,6.25
2018-08-25T07:57:46.132Z,7.75
2018-08-25T08:00:17.945Z,7.00
2018-08-25T08:02:50.145Z,6.00
2018-08-25T08:08:09.016Z,6.00
2018-08-25T08:10:48.089Z,5.75
2018-08-25T08:13:17.531Z,6.00
2018-08-25T08:15:48.441Z,5.50
2018-08-25T08:18:19.043Z,4.00
2018-08-25T08:20:50.077Z,3.00
2018-08-25T08:23:19.479Z,3.50
2018-08-25T08:25:51.315Z,6.50
2018-08-25T08:28:21.464Z,3.75
2018-08-25T08:30:53.613Z,3.25
2018-08-25T08:33:26.718Z,5.75
2018-08-25T08:36:02.608Z,4.00
2018-08-25T08:38:40.682Z,4.00
2018-08-25T08:41:12.355Z,4.00
2018-08-25T08:43:46.172Z,4.00
2018-08-25T08:46:24.288Z,3.50
2018-08-25T08:48:55.999Z,3.00
2018-08-25T08:51:27.804Z,3.00
2018-08-25T08:54:13.607Z,2.75
2018-08-25T09:02:45.646Z,2.00
2018-08-25T09:05:23.647Z,2.25
2018-08-25T09:07:55.744Z,2.00
2018-08-25T09:10:29.624Z,2.25
2018-08-25T09:12:59.758Z,2.00
2018-08-25T09:15:34.476Z,2.00
2018-08-25T09:18:06.289Z,1.75
2018-08-25T09:20:36.193Z,1.25
2018-08-25T09:23:11.335Z,1.75
2018-08-25T09:25:42.522Z,1.75
2018-08-25T09:28:13.807Z,1.50
2018-08-25T09:30:47.598Z,1.75
2018-08-25T09:33:18.860Z,1.50
2018-08-25T09:35:57.832Z,1.00
2018-08-25T09:38:33.543Z,2.00
2018-08-25T09:41:07.416Z,1.00
2018-08-25T09:43:37.609Z,1.25
2018-08-25T09:46:07.885Z,2.00
2018-08-25T09:48:38.585Z,1.25
2018-08-25T09:51:08.772Z,1.00
2018-08-25T09:53:41.045Z,1.00
2018-08-25T09:56:12.462Z,1.50
2018-08-25T09:58:45.484Z,2.75
2018-08-25T10:01:21.146Z,2.00
2018-08-25T10:03:53.547Z,2.00
2018-08-25T10:06:23.872Z,1.25
2018-08-25T10:08:54.491Z,2.00
2018-08-25T10:11:25.130Z,2.00
2018-08-25T10:13:55.074Z,2.00
2018-08-25T10:16:26.047Z,2.00
2018-08-25T10:18:57.934Z,1.00
2018-08-25T10:21:31.677Z,2.00
2018-08-25T10:24:15.547Z,1.00
2018-08-25T10:26:51.808Z,2.00
2018-08-25T10:29:22.531Z,1.00
2018-08-25T10:31:52.065Z,1.00
2018-08-25T10:34:22.881Z,2.00
2018-08-25T10:36:53.454Z,2.00
2018-08-25T10:39:26.812Z,2.00
2018-08-25T10:41:58.459Z,3.00
2018-08-25T10:44:33.357Z,2.75
2018-08-25T10:47:09.137Z,2.00
2018-08-25T10:49:40.765Z,2.00
2018-08-25T10:52:11.249Z,3.25
2018-08-25T10:54:41.173Z,4.00
2018-08-25T10:57:11.357Z,2.75
2018-08-25T10:59:44.657Z,2.25
2018-08-25T11:02:28.979Z,2.25
2018-08-25T11:05:04.732Z,1.50
2018-08-25T11:07:38.556Z,2.00
2018-08-25T11:12:51.009Z,2.00
2018-08-25T11:15:21.398Z,2.50
2018-08-25T11:17:50.826Z,4.00
2018-08-25T11:20:21.245Z,3.00
2018-08-25T11:22:52.649Z,3.00
2018-08-25T11:25:25.854Z,4.25
2018-08-25T11:27:55.810Z,4.00
2018-08-25T11:30:28.553Z,4.25
2018-08-25T11:33:10.359Z,5.75
2018-08-25T11:35:41.878Z,6.00
2018-08-25T11:38:12.475Z,6.00
2018-08-25T11:40:46.707Z,8.00
2018-08-25T11:43:18.151Z,7.50
2018-08-25T11:45:48.779Z,6.00
2018-08-25T11:48:19.609Z,6.25
2018-08-25T11:50:50.826Z,7.00
2018-08-25T11:53:21.150Z,6.50
2018-08-25T11:55:51.258Z,6.00
2018-08-25T11:58:20.652Z,5.00
2018-08-25T12:00:58.082Z,8.00
2018-08-25T12:03:30.136Z,5.50
2018-08-25T12:06:01.853Z,7.00
2018-08-25T12:08:32.785Z,6.25
2018-08-25T12:11:05.759Z,6.00
2018-08-25T12:16:06.949Z,7.25
2018-08-25T12:18:41.750Z,7.75
2018-08-25T12:21:12.910Z,8.75
2018-08-25T12:23:43.262Z,9.25
2018-08-25T12:26:29.504Z,8.50
2018-08-25T12:29:00.291Z,8.75
2018-08-25T12:31:33.242Z,5.00
2018-08-25T12:34:03.497Z,5.00
2018-08-25T12:36:35.232Z,4.00
2018-08-25T12:39:08.533Z,4.50
2018-08-25T12:41:39.439Z,5.25
2018-08-25T12:44:09.147Z,6.00
2018-08-25T12:46:41.433Z,6.75
2018-08-25T12:49:14.136Z,7.25
2018-08-25T12:51:45.096Z,7.00
2018-08-25T12:54:14.738Z,8.00
2018-08-25T12:56:53.929Z,7.75
2018-08-25T12:59:27.301Z,7.00
2018-08-25T13:02:03.049Z,7.25
2018-08-25T13:04:40.965Z,6.00
2018-08-25T13:07:11.296Z,5.75
2018-08-25T13:09:45.721Z,5.00
2018-08-25T13:12:17.415Z,4.50
2018-08-25T13:14:50.848Z,4.25
2018-08-25T13:17:24.582Z,5.00
2018-08-25T13:19:55.773Z,4.75
2018-08-25T13:22:27.650Z,5.75
2018-08-25T13:24:58.987Z,6.00
2018-08-25T13:27:31.308Z,6.50
2018-08-25T13:30:04.706Z,5.00
2018-08-25T13:32:39.057Z,5.00
2018-08-25T13:35:09.674Z,3.25
2018-08-25T13:37:45.111Z,3.00
2018-08-25T13:40:17.141Z,2.00
2018-08-25T13:42:48.531Z,3.00
2018-08-25T13:45:20.067Z,3.00
2018-08-25T13:47:54.851Z,2.25
2018-08-25T13:50:26.076Z,3.00
2018-08-25T13:52:55.992Z,3.00
2018-08-25T13:55:25.244Z,3.75
2018-08-25T13:57:54.714Z,3.00
2018-08-25T14:00:24.631Z,4.00
2018-08-25T14:02:54.673Z,3.00
2018-08-25T14:05:29.038Z,3.75
2018-08-25T14:07:59.039Z,3.00
2018-08-25T14:10:30.651Z,3.00
2018-08-25T14:13:01.315Z,2.00
2018-08-25T14:15:36.190Z,3.00
2018-08-25T14:18:05.911Z,2.25
2018-08-25T14:20:36.093Z,2.00
2018-08-25T14:23:06.865Z,2.00
2018-08-25T14:25:38.916Z,2.00
2018-08-25T14:28:23.492Z,1.00
2018-08-25T14:30:55.044Z,1.00
2018-08-25T14:33:30.339Z,1.00
2018-08-25T14:35:59.811Z,2.00
2018-08-25T14:38:32.143Z,2.25
2018-08-25T14:41:04.196Z,2.00
2018-08-25T14:43:35.292Z,2.50
2018-08-25T14:46:08.006Z,4.00
2018-08-25T14:48:37.408Z,3.50
2018-08-25T14:51:08.768Z,3.50
2018-08-25T14:53:39.867Z,3.00
2018-08-25T14:56:12.326Z,3.75
2018-08-25T14:58:43.461Z,3.00
2018-08-25T15:01:14.976Z,4.00
2018-08-25T15:03:46.250Z,4.00
2018-08-25T15:06:16.721Z,4.00
2018-08-25T15:08:46.653Z,4.00
2018-08-25T15:11:18.946Z,3.00
2018-08-25T15:13:50.063Z,2.00
2018-08-25T15:16:21.507Z,1.25
2018-08-25T15:18:57.521Z,2.00
2018-08-25T15:21:32.018Z,1.75
2018-08-25T15:26:53.057Z,1.75
2018-08-25T15:29:22.522Z,2.00
2018-08-25T15:31:55.223Z,4.00
2018-08-25T15:34:27.419Z,1.00
2018-08-25T15:36:58.496Z,1.25
2018-08-25T15:39:31.777Z,1.75
2018-08-25T15:42:01.274Z,2.00
2018-08-25T15:44:32.245Z,1.00
2018-08-25T15:47:03.028Z,1.25
2018-08-25T15:49:32.732Z,1.25
2018-08-25T15:52:03.391Z,1.00
2018-08-25T15:54:33.756Z,2.00
2018-08-25T15:57:08.568Z,1.25
2018-08-25T15:59:47.151Z,1.75
2018-08-25T16:02:19.421Z,1.00
2018-08-25T16:04:49.610Z,1.00
2018-08-25T16:07:19.794Z,1.00
2018-08-25T16:10:15.084Z,1.00
2018-08-25T16:12:47.457Z,0.00
2018-08-25T16:15:26.090Z,1.00
2018-08-25T16:17:57.002Z,0.00
2018-08-25T16:20:27.909Z,1.00
2018-08-25T16:22:59.776Z,0.50
2018-08-25T16:25:29.672Z,0.50
2018-08-25T16:27:59.012Z,0.00
2018-08-25T16:30:28.896Z,0.00
2018-08-25T16:33:00.699Z,1.00
2018-08-25T16:35:35.522Z,0.00
2018-08-25T16:38:08.677Z,0.00
2018-08-25T16:40:40.726Z,1.00
2018-08-25T16:43:12.833Z,2.00
2018-08-25T16:45:45.454Z,1.00
2018-08-25T16:48:16.462Z,0.00
2018-08-25T16:50:52.549Z,1.00
2018-08-25T16:53:22.548Z,1.00
2018-08-25T16:55:56.575Z,1.00
2018-08-25T16:58:31.667Z,0.75
2018-08-25T17:03:38.492Z,1.00
2018-08-25T17:06:11.240Z,1.00
2018-08-25T17:08:42.659Z,1.00
2018-08-25T17:11:21.282Z,1.00
2018-08-25T17:13:54.045Z,1.00
2018-08-25T17:16:24.836Z,1.00
2018-08-25T17:18:56.841Z,0.25
2018-08-25T17:21:27.953Z,1.00
2018-08-25T17:24:00.113Z,1.00
2018-08-25T17:26:31.365Z,0.00
2018-08-25T17:29:01.359Z,0.00
2018-08-25T17:31:36.329Z,1.00
2018-08-25T17:34:07.373Z,3.00
2018-08-25T17:36:40.577Z,26.25
2018-08-25T17:39:16.419Z,12.75
2018-08-25T17:41:52.484Z,1.00
2018-08-25T17:44:24.027Z,27.25
2018-08-25T17:47:04.764Z,5.00
2018-08-25T17:49:35.532Z,1.00
2018-08-25T17:52:14.424Z,1.00
2018-08-25T17:54:55.288Z,1.00
2018-08-25T17:57:29.112Z,1.00
2018-08-25T18:00:16.260Z,1.00
2018-08-25T18:02:56.868Z,1.00
2018-08-25T18:05:39.489Z,1.00
2018-08-25T18:08:16.550Z,1.00
2018-08-25T18:10:49.093Z,1.00
2018-08-25T18:13:21.992Z,1.00
2018-08-25T18:18:44.145Z,1.00
2018-08-25T18:21:14.903Z,3.00
2018-08-25T18:23:47.888Z,1.00
2018-08-25T18:26:23.628Z,3.50
2018-08-25T18:28:53.238Z,1.75
2018-08-25T18:31:24.934Z,1.25
2018-08-25T18:33:55.023Z,1.00
2018-08-25T18:36:24.624Z,1.00
2018-08-25T18:38:54.966Z,1.25
2018-08-25T18:41:24.850Z,2.00
2018-08-25T18:43:55.996Z,14.25
2018-08-25T18:46:29.454Z,2.00
2018-08-25T18:49:01.941Z,7.50
2018-08-25T18:51:31.430Z,1.75
2018-08-25T18:54:01.628Z,1.50
2018-08-25T18:56:31.470Z,1.00
2018-08-25T18:59:04.091Z,3.00
2018-08-25T19:01:33.649Z,2.00
2018-08-25T19:04:03.736Z,2.75
2018-08-25T19:06:35.830Z,4.00
2018-08-25T19:09:10.538Z,4.00
2018-08-25T19:11:41.611Z,6.75
2018-08-25T19:14:14.688Z,13.00
2018-08-25T19:16:50.330Z,10.00
2018-08-25T19:19:21.271Z,6.25
2018-08-25T19:21:53.200Z,2.75
2018-08-25T19:24:27.474Z,2.50
2018-08-25T19:26:57.205Z,2.00
2018-08-25T19:29:28.681Z,2.50
2018-08-25T19:31:58.398Z,2.00
2018-08-25T19:34:31.591Z,2.00
2018-08-25T19:37:04.104Z,2.25
2018-08-25T19:39:36.354Z,2.00
2018-08-25T19:42:08.807Z,2.00
2018-08-25T19:44:40.308Z,2.00
2018-08-25T19:47:11.891Z,3.50
2018-08-25T19:49:42.732Z,3.75
2018-08-25T19:52:15.825Z,2.75
2018-08-25T19:54:47.822Z,3.00
2018-08-25T19:57:31.820Z,3.00
2018-08-25T20:00:10.607Z,2.00
2018-08-25T20:02:43.928Z,3.00
2018-08-25T20:05:14.757Z,3.00
2018-08-25T20:07:46.762Z,3.00
2018-08-25T20:10:16.569Z,3.00
2018-08-25T20:12:48.649Z,2.50
2018-08-25T20:15:28.038Z,3.00
2018-08-25T20:18:01.317Z,3.25
2018-08-25T20:20:36.704Z,4.00
2018-08-25T20:23:10.763Z,2.25
2018-08-25T20:25:43.261Z,3.50
2018-08-25T20:28:13.461Z,3.00
2018-08-25T20:30:46.510Z,3.00
2018-08-25T20:33:30.478Z,3.75
2018-08-25T20:36:09.576Z,6.00
2018-08-25T20:38:44.226Z,4.00
2018-08-25T20:41:15.225Z,3.00
2018-08-25T20:43:46.292Z,5.75
2018-08-25T20:46:16.722Z,5.75
2018-08-25T20:48:48.192Z,4.00
2018-08-25T20:51:18.933Z,4.00
2018-08-25T20:53:50.792Z,4.00
2018-08-25T20:56:22.097Z,3.50
2018-08-25T20:58:52.062Z,7.00
2018-08-25T21:01:22.585Z,5.75
2018-08-25T21:03:55.697Z,3.25
2018-08-25T21:06:31.753Z,3.00
2018-08-25T21:09:04.771Z,4.00
2018-08-25T21:11:40.334Z,3.00
2018-08-25T21:14:11.205Z,3.25
2018-08-25T21:16:42.355Z,3.50
2018-08-25T21:19:15.293Z,2.75
2018-08-25T21:21:49.921Z,3.00
2018-08-25T21:24:28.659Z,3.00
2018-08-25T21:27:05.271Z,2.00
2018-08-25T21:29:36.080Z,3.00
2018-08-25T21:32:09.177Z,3.25
2018-08-25T21:34:43.608Z,2.25
2018-08-25T21:37:13.412Z,3.00
2018-08-25T21:39:44.915Z,4.00
2018-08-25T21:42:15.647Z,3.00
2018-08-25T21:44:47.452Z,4.00
2018-08-25T21:47:28.280Z,2.75
2018-08-25T21:49:58.494Z,3.75
2018-08-25T21:52:30.563Z,2.25
2018-08-25T21:55:00.815Z,2.75
2018-08-25T21:57:31.732Z,2.25
2018-08-25T22:00:06.108Z,4.50
2018-08-25T22:02:39.023Z,2.00
2018-08-25T22:05:08.395Z,3.50
2018-08-25T22:07:40.793Z,2.75
2018-08-25T22:10:11.489Z,6.50
2018-08-25T22:12:42.484Z,5.00
2018-08-25T22:15:16.881Z,4.00
2018-08-25T22:17:46.178Z,3.50
2018-08-25T22:20:17.260Z,4.00
2018-08-25T22:22:47.565Z,2.00
2018-08-25T22:25:17.923Z,3.75
2018-08-25T22:27:48.238Z,3.50
2018-08-25T22:30:18.193Z,4.00
2018-08-25T22:32:48.935Z,3.25
2018-08-25T22:35:18.569Z,4.00
2018-08-25T22:37:49.401Z,4.00
2018-08-25T22:40:20.457Z,6.50
2018-08-25T22:42:51.744Z,3.25
2018-08-25T22:45:21.644Z,10.50
2018-08-25T22:47:51.971Z,7.25
2018-08-25T22:50:21.336Z,6.50
2018-08-25T22:52:53.348Z,6.25
2018-08-25T22:55:25.402Z,6.00
2018-08-25T22:57:55.878Z,6.75
2018-08-25T23:00:25.428Z,4.75
2018-08-25T23:03:13.224Z,4.75
2018-08-25T23:05:45.773Z,6.00
2018-08-25T23:08:16.530Z,4.75
2018-08-25T23:10:46.537Z,3.00
2018-08-25T23:13:16.354Z,6.00
2018-08-25T23:15:48.499Z,6.25
2018-08-25T23:18:19.564Z,4.75
2018-08-25T23:20:49.345Z,3.50
2018-08-25T23:23:18.835Z,4.50
2018-08-25T23:25:55.413Z,8.00
2018-08-25T23:28:31.900Z,7.00
2018-08-25T23:31:01.440Z,6.75
2018-08-25T23:33:31.274Z,7.00
2018-08-25T23:36:03.507Z,8.75
2018-08-25T23:38:40.603Z,6.75
2018-08-25T23:41:11.926Z,7.00
2018-08-25T23:43:42.153Z,6.75
2018-08-25T23:46:11.873Z,7.75
2018-08-25T23:48:45.655Z,9.25
2018-08-25T23:51:16.615Z,7.00
2018-08-25T23:53:46.577Z,7.25
2018-08-25T23:56:16.845Z,6.00
2018-08-25T23:58:46.309Z,6.00
